This is the latest recevied weather packets stored in our database for station/object KG5CK-1. If no packets are shown the sender has not sent any weather packets the latest 10 day(s).
| Time | Temp. | Humidity | Pressure | Rain* | Wind** | Luminosity | Snow |
|---|---|---|---|---|---|---|---|
| 1777874522 | 20° C | 58% | 1011.2 hPa | 0 mm | 0.45 m/s, 106° | - | - |
| 1777874463 | 20° C | 58% | 1011.2 hPa | 0 mm | 0.45 m/s, 106° | - | - |
| 1777874403 | 20° C | 58% | 1011.2 hPa | 0 mm | 1.34 m/s, 136° | - | - |
| 1777874342 | 20° C | 58% | 1011.2 hPa | 0 mm | 1.34 m/s, 136° | - | - |
| 1777874282 | 20° C | 58% | 1011.2 hPa | 0 mm | 1.34 m/s, 136° | - | - |
| 1777874223 | 20° C | 58% | 1011.2 hPa | 0 mm | 1.34 m/s, 136° | - | - |
| 1777874162 | 20° C | 58% | 1011.2 hPa | 0 mm | 1.34 m/s, 136° | - | - |
| 1777874103 | 20° C | 58% | 1011.4 hPa | 0 mm | 0.89 m/s, 125° | - | - |
| 1777874043 | 20° C | 58% | 1011.4 hPa | 0 mm | 0.89 m/s, 125° | - | - |
| 1777873982 | 20° C | 58% | 1011.4 hPa | 0 mm | 0.89 m/s, 125° | - | - |
| 1777873923 | 20° C | 58% | 1011.4 hPa | 0 mm | 0.89 m/s, 125° | - | - |
| 1777873863 | 20° C | 58% | 1011.4 hPa | 0 mm | 0.89 m/s, 125° | - | - |
| 1777873802 | 20° C | 58% | 1011.4 hPa | 0 mm | 1.79 m/s, 154° | - | - |
| 1777873742 | 20° C | 58% | 1011.4 hPa | 0 mm | 1.79 m/s, 154° | - | - |
| 1777873683 | 20° C | 58% | 1011.4 hPa | 0 mm | 1.79 m/s, 154° | - | - |
| 1777873622 | 20° C | 58% | 1011.4 hPa | 0 mm | 1.79 m/s, 154° | - | - |
| 1777873562 | 20° C | 58% | 1011.4 hPa | 0 mm | 1.79 m/s, 154° | - | - |
| 1777873502 | 20° C | 58% | 1011.3 hPa | 0 mm | 0.89 m/s, 135° | - | - |
| 1777873443 | 20° C | 58% | 1011.3 hPa | 0 mm | 0.89 m/s, 135° | - | - |
| 1777873383 | 20° C | 58% | 1011.3 hPa | 0 mm | 0.89 m/s, 135° | - | - |
| 1777873323 | 20° C | 58% | 1011.3 hPa | 0 mm | 0.89 m/s, 135° | - | - |
| 1777873263 | 20° C | 58% | 1011.3 hPa | 0 mm | 0.89 m/s, 135° | - | - |
| 1777873203 | 20° C | 58% | 1011.3 hPa | 0 mm | 0.45 m/s, 166° | - | - |
| 1777873142 | 20° C | 58% | 1011.3 hPa | 0 mm | 0.45 m/s, 166° | - | - |
| 1777873082 | 20° C | 58% | 1011.3 hPa | 0 mm | 0.45 m/s, 166° | - | - |
* Rain latest hour (hover to see other rain measurements)
** Current wind speed in m/s (hover to see current wind gust speed)